createdAt,value
2019-02-16T00:01:42.258Z,102655.27
2019-02-16T00:04:12.450Z,102656.25
2019-02-16T00:06:42.858Z,102670.84
2019-02-16T00:09:13.143Z,102672.30
2019-02-16T00:11:43.353Z,102662.80
2019-02-16T00:14:13.585Z,102675.41
2019-02-16T00:16:43.717Z,102666.12
2019-02-16T00:19:13.830Z,102666.44
2019-02-16T00:21:44.106Z,102664.67
2019-02-16T00:24:14.166Z,102666.76
2019-02-16T00:26:44.574Z,102662.39
2019-02-16T00:29:14.726Z,102659.48
2019-02-16T00:31:45.204Z,102656.38
2019-02-16T00:34:15.441Z,102656.21
2019-02-16T00:36:45.638Z,102654.76
2019-02-16T00:39:15.877Z,102656.47
2019-02-16T00:41:46.130Z,102652.48
2019-02-16T00:44:16.399Z,102647.09
2019-02-16T00:46:46.736Z,102643.92
2019-02-16T00:49:17.271Z,102606.15
2019-02-16T00:51:48.130Z,102639.97
2019-02-16T00:54:18.286Z,102638.98
2019-02-16T00:56:48.669Z,102638.00
2019-02-16T00:59:18.881Z,102633.79
2019-02-16T01:01:49.261Z,102637.17
2019-02-16T01:04:19.533Z,102628.41
2019-02-16T01:06:49.747Z,102619.48
2019-02-16T01:09:19.926Z,102619.00
2019-02-16T01:11:50.216Z,102620.20
2019-02-16T01:14:20.735Z,102624.98
2019-02-16T01:16:51.189Z,102621.19
2019-02-16T01:19:21.402Z,102620.30
2019-02-16T01:21:51.668Z,102623.56
2019-02-16T01:24:21.954Z,102622.02
2019-02-16T01:26:52.022Z,102614.23
2019-02-16T01:29:22.318Z,102606.44
2019-02-16T01:31:52.727Z,102598.81
2019-02-16T01:34:23.169Z,102607.36
2019-02-16T01:36:53.654Z,102601.59
2019-02-16T01:39:24.155Z,102598.55
2019-02-16T01:41:54.427Z,102600.16
2019-02-16T01:44:24.832Z,102591.27
2019-02-16T01:46:56.921Z,102588.41
2019-02-16T01:49:27.253Z,102579.64
2019-02-16T01:51:57.703Z,102584.09
2019-02-16T01:54:28.102Z,102577.23
2019-02-16T01:56:58.516Z,102575.02
2019-02-16T01:59:28.850Z,102574.12
2019-02-16T02:01:59.216Z,102563.73
2019-02-16T02:04:29.582Z,102559.84
2019-02-16T02:07:00.125Z,102557.81
2019-02-16T02:09:30.522Z,102556.45
2019-02-16T02:12:00.888Z,102544.02
2019-02-16T02:14:31.648Z,102542.98
2019-02-16T02:17:01.903Z,102537.22
2019-02-16T02:19:32.391Z,102538.84
2019-02-16T02:22:02.705Z,102543.77
2019-02-16T02:24:33.204Z,102539.88
2019-02-16T02:27:03.591Z,102538.91
2019-02-16T02:29:34.070Z,102525.76
2019-02-16T02:32:04.297Z,102525.95
2019-02-16T02:34:34.601Z,102527.56
2019-02-16T02:37:04.901Z,102525.20
2019-02-16T02:39:35.235Z,102520.63
2019-02-16T02:42:06.960Z,102518.13
2019-02-16T02:44:37.559Z,102522.59
2019-02-16T02:47:07.970Z,102523.97
2019-02-16T02:49:38.349Z,102529.91
2019-02-16T02:52:08.709Z,102520.63
2019-02-16T02:54:39.033Z,102523.97
2019-02-16T02:57:09.497Z,102522.11
2019-02-16T02:59:39.945Z,102519.77
2019-02-16T03:02:10.294Z,102513.98
2019-02-16T03:04:40.769Z,102517.65
2019-02-16T03:07:11.182Z,102515.20
2019-02-16T03:09:41.934Z,102511.80
2019-02-16T03:12:12.323Z,102509.53
2019-02-16T03:14:42.820Z,102506.47
2019-02-16T03:17:13.335Z,102516.11
2019-02-16T03:19:43.861Z,102513.90
2019-02-16T03:22:14.484Z,102508.33
2019-02-16T03:24:45.098Z,102506.11
2019-02-16T03:27:31.964Z,102503.51
2019-02-16T03:30:49.927Z,102505.22
2019-02-16T03:33:49.305Z,102489.72
2019-02-16T03:37:52.315Z,102494.20
2019-02-16T03:40:22.645Z,102484.88
2019-02-16T03:42:59.212Z,102492.75
2019-02-16T03:45:38.288Z,102505.31
2019-02-16T03:48:08.667Z,102503.70
2019-02-16T03:50:38.942Z,102504.99
2019-02-16T03:53:09.075Z,102504.16
2019-02-16T03:55:39.305Z,102501.89
2019-02-16T03:58:09.484Z,102501.89
2019-02-16T04:00:39.604Z,102494.05
2019-02-16T04:03:09.929Z,102501.33
2019-02-16T04:05:40.513Z,102504.66
2019-02-16T04:08:10.781Z,102500.29
2019-02-16T04:10:41.044Z,102502.80
2019-02-16T04:13:11.214Z,102502.55
2019-02-16T04:15:41.718Z,102515.05
2019-02-16T04:18:11.811Z,102522.34
2019-02-16T04:20:44.064Z,102520.15
2019-02-16T04:23:14.170Z,102516.02
2019-02-16T04:25:44.546Z,102517.95
2019-02-16T04:28:14.819Z,102506.49
2019-02-16T04:30:44.957Z,102517.92
2019-02-16T04:33:15.328Z,102525.55
2019-02-16T04:35:45.527Z,102520.27
2019-02-16T04:38:15.748Z,102517.51
2019-02-16T04:40:46.003Z,102509.38
2019-02-16T04:43:16.168Z,102502.89
2019-02-16T04:45:46.464Z,102501.47
2019-02-16T04:48:16.632Z,102503.55
2019-02-16T04:50:46.890Z,102505.83
2019-02-16T04:53:17.258Z,102505.92
2019-02-16T04:55:47.652Z,102500.17
2019-02-16T04:58:17.859Z,102502.25
2019-02-16T05:00:48.133Z,102508.83
2019-02-16T05:03:18.242Z,102508.83
2019-02-16T05:05:48.503Z,102507.06
2019-02-16T05:08:18.779Z,102512.47
2019-02-16T05:10:49.043Z,102518.13
2019-02-16T05:13:19.251Z,102512.94
2019-02-16T05:15:49.496Z,102514.39
2019-02-16T05:18:19.713Z,102510.03
2019-02-16T05:20:49.952Z,102515.33
2019-02-16T05:23:20.173Z,102510.80
2019-02-16T05:25:51.039Z,102507.60
2019-02-16T05:28:21.448Z,102498.94
2019-02-16T05:30:51.784Z,102494.17
2019-02-16T05:33:21.859Z,102483.22
2019-02-16T05:35:52.104Z,102488.72
2019-02-16T05:38:22.358Z,102483.44
2019-02-16T05:40:52.433Z,102487.83
2019-02-16T05:43:22.607Z,102489.30
2019-02-16T05:45:52.816Z,102485.81
2019-02-16T05:48:23.021Z,102490.28
2019-02-16T05:50:53.295Z,102477.09
2019-02-16T05:53:23.606Z,102469.95
2019-02-16T05:55:53.820Z,102489.76
2019-02-16T05:58:23.973Z,102481.51
2019-02-16T06:00:54.289Z,102484.14
2019-02-16T06:03:24.637Z,102487.45
2019-02-16T06:05:57.732Z,102483.70
2019-02-16T06:08:28.017Z,102489.19
2019-02-16T06:10:58.259Z,102480.05
2019-02-16T06:13:28.401Z,102476.49
2019-02-16T06:15:58.586Z,102466.20
2019-02-16T06:18:28.808Z,102464.59
2019-02-16T06:20:58.928Z,102467.19
2019-02-16T06:23:29.110Z,102472.44
2019-02-16T06:25:59.371Z,102482.75
2019-02-16T06:28:29.461Z,102495.73
2019-02-16T06:30:59.663Z,102500.51
2019-02-16T06:33:30.086Z,102503.67
2019-02-16T06:36:04.708Z,102491.02
2019-02-16T06:38:34.803Z,102496.30
2019-02-16T06:41:05.514Z,102507.09
2019-02-16T06:43:36.048Z,102508.86
2019-02-16T06:46:07.185Z,102512.84
2019-02-16T06:48:37.681Z,102512.34
2019-02-16T06:51:08.339Z,102508.95
2019-02-16T06:53:38.844Z,102500.09
2019-02-16T06:56:20.330Z,102505.95
2019-02-16T06:58:50.940Z,102508.55
2019-02-16T07:01:21.345Z,102506.10
2019-02-16T07:03:51.810Z,102507.34
2019-02-16T07:06:22.286Z,102500.53
2019-02-16T07:08:52.707Z,102484.04
2019-02-16T07:11:23.290Z,102497.27
2019-02-16T07:13:53.924Z,102508.94
2019-02-16T07:16:43.268Z,102507.08
2019-02-16T07:19:20.072Z,102509.36
2019-02-16T07:21:50.806Z,102520.72
2019-02-16T07:24:21.431Z,102510.90
2019-02-16T07:26:52.109Z,102520.00
2019-02-16T07:31:54.909Z,102523.80
2019-02-16T07:34:25.350Z,102522.42
2019-02-16T07:36:58.916Z,102534.67
2019-02-16T07:39:29.411Z,102534.22
2019-02-16T07:41:59.897Z,102534.36
2019-02-16T07:44:50.374Z,102535.02
2019-02-16T07:47:24.585Z,102528.85
2019-02-16T07:50:00.838Z,102533.31
2019-02-16T07:52:50.257Z,102530.95
2019-02-16T07:55:54.754Z,102544.23
2019-02-16T07:58:50.013Z,102539.03
2019-02-16T08:01:39.451Z,102537.64
2019-02-16T08:04:15.816Z,102538.02
2019-02-16T08:06:52.214Z,102533.28
2019-02-16T08:09:47.379Z,102539.30
2019-02-16T08:12:33.049Z,102536.98
2019-02-16T08:15:25.381Z,102544.68
2019-02-16T08:18:13.304Z,102527.38
2019-02-16T08:20:51.728Z,102523.28
2019-02-16T08:23:40.530Z,102524.33
2019-02-16T08:26:27.447Z,102520.41
2019-02-16T08:29:14.462Z,102521.50
2019-02-16T08:31:54.579Z,102518.37
2019-02-16T08:34:39.886Z,102525.73
2019-02-16T08:37:29.482Z,102537.45
2019-02-16T08:40:15.563Z,102539.61
2019-02-16T08:43:07.441Z,102536.05
2019-02-16T08:45:52.778Z,102531.67
2019-02-16T08:48:38.127Z,102533.90
2019-02-16T08:51:46.699Z,102536.03
2019-02-16T08:54:34.110Z,102542.54
2019-02-16T08:57:35.371Z,102538.50
2019-02-16T09:00:17.047Z,102533.23
2019-02-16T09:03:07.004Z,102533.20
2019-02-16T09:05:48.509Z,102526.25
2019-02-16T09:08:36.534Z,102526.26
2019-02-16T09:11:31.777Z,102520.05
2019-02-16T09:14:22.665Z,102524.28
2019-02-16T09:17:29.958Z,102522.09
2019-02-16T09:20:16.031Z,102518.02
2019-02-16T09:23:01.219Z,102513.64
2019-02-16T09:25:59.233Z,102514.02
2019-02-16T09:28:47.440Z,102507.39
2019-02-16T09:31:39.315Z,102503.84
2019-02-16T09:34:18.381Z,102511.97
2019-02-16T09:37:07.228Z,102517.97
2019-02-16T09:39:55.264Z,102518.69
2019-02-16T09:42:37.298Z,102518.55
2019-02-16T09:45:17.716Z,102518.36
2019-02-16T09:47:57.797Z,102519.59
2019-02-16T09:50:45.580Z,102521.74
2019-02-16T09:53:37.508Z,102517.38
2019-02-16T09:56:21.420Z,102513.80
2019-02-16T09:59:16.537Z,102519.50
2019-02-16T10:02:04.185Z,102516.85
2019-02-16T10:04:54.770Z,102517.77
2019-02-16T10:07:45.155Z,102516.02
2019-02-16T10:10:27.308Z,102520.39
2019-02-16T10:13:13.325Z,102516.05
2019-02-16T10:16:11.368Z,102508.16
2019-02-16T10:19:05.085Z,102508.64
2019-02-16T10:21:54.982Z,102513.41
2019-02-16T10:24:44.177Z,102522.09
2019-02-16T10:27:39.145Z,102520.73
2019-02-16T10:30:20.321Z,102519.34
2019-02-16T10:33:12.574Z,102512.33
2019-02-16T10:36:08.133Z,102524.47
2019-02-16T10:39:02.557Z,102525.73
2019-02-16T10:41:50.892Z,102531.80
2019-02-16T10:44:42.788Z,102533.00
2019-02-16T10:47:40.942Z,102526.31
2019-02-16T10:50:26.521Z,102530.50
2019-02-16T10:53:18.714Z,102536.83
2019-02-16T10:56:13.675Z,102540.18
2019-02-16T10:59:08.688Z,102529.92
2019-02-16T11:02:10.368Z,102534.55
2019-02-16T11:05:03.656Z,102522.52
2019-02-16T11:07:42.704Z,102517.49
2019-02-16T11:10:22.804Z,102521.31
2019-02-16T11:13:02.648Z,102523.33
2019-02-16T11:15:47.252Z,102522.28
2019-02-16T11:18:39.313Z,102526.05
2019-02-16T11:21:23.670Z,102520.57
2019-02-16T11:24:09.800Z,102535.67
2019-02-16T11:27:11.838Z,102528.36
2019-02-16T11:30:00.932Z,102524.58
2019-02-16T11:32:43.087Z,102522.58
2019-02-16T11:35:30.990Z,102515.77
2019-02-16T11:38:23.029Z,102517.27
2019-02-16T11:41:02.222Z,102522.75
2019-02-16T11:43:41.105Z,102516.80
2019-02-16T11:46:32.154Z,102521.84
2019-02-16T11:49:11.473Z,102512.31
2019-02-16T11:51:52.861Z,102514.67
2019-02-16T11:54:33.095Z,102514.36
2019-02-16T11:57:17.867Z,102514.44
2019-02-16T12:00:09.983Z,102509.34
2019-02-16T12:02:57.337Z,102509.02
2019-02-16T12:05:35.476Z,102514.48
2019-02-16T12:08:19.738Z,102512.03
2019-02-16T12:11:11.925Z,102510.87
2019-02-16T12:14:08.145Z,102511.41
2019-02-16T12:17:02.668Z,102508.45
2019-02-16T12:20:03.329Z,102510.75
2019-02-16T12:22:42.967Z,102505.58
2019-02-16T12:25:25.413Z,102507.50
2019-02-16T12:28:08.113Z,102502.30
2019-02-16T12:30:49.291Z,102494.89
2019-02-16T12:33:44.469Z,102482.67
2019-02-16T12:36:31.863Z,102480.69
2019-02-16T12:39:22.408Z,102487.87
2019-02-16T12:42:16.332Z,102475.67
2019-02-16T12:45:03.563Z,102479.27
2019-02-16T12:47:49.681Z,102475.87
2019-02-16T12:50:47.832Z,102482.16
2019-02-16T12:53:40.967Z,102481.35
2019-02-16T12:56:17.797Z,102483.16
2019-02-16T12:59:05.098Z,102477.04
2019-02-16T13:02:02.974Z,102471.36
2019-02-16T13:04:52.467Z,102476.23
2019-02-16T13:07:31.171Z,102478.05
2019-02-16T13:10:18.866Z,102470.63
2019-02-16T13:13:08.100Z,102477.78
2019-02-16T13:16:12.592Z,102475.44
2019-02-16T13:19:00.058Z,102471.30
2019-02-16T13:21:44.220Z,102461.30
2019-02-16T13:24:21.073Z,102468.05
2019-02-16T13:27:04.000Z,102466.36
2019-02-16T13:29:58.609Z,102461.09
2019-02-16T13:32:53.934Z,102456.22
2019-02-16T13:35:58.508Z,102453.61
2019-02-16T13:38:45.752Z,102448.17
2019-02-16T13:41:34.805Z,102452.44
2019-02-16T13:44:11.192Z,102450.28
2019-02-16T13:46:58.901Z,102451.14
2019-02-16T13:49:54.066Z,102463.06
2019-02-16T13:52:46.158Z,102458.30
2019-02-16T13:55:22.188Z,102464.19
2019-02-16T13:58:08.077Z,102465.51
2019-02-16T14:01:00.224Z,102464.59
2019-02-16T14:03:58.551Z,102464.95
2019-02-16T14:06:38.692Z,102462.16
2019-02-16T14:09:14.826Z,102460.33
2019-02-16T14:11:55.898Z,102462.42
2019-02-16T14:14:50.713Z,102469.84
2019-02-16T14:17:38.474Z,102467.13
2019-02-16T14:20:09.427Z,102470.13
2019-02-16T14:22:39.676Z,102464.37
2019-02-16T14:25:17.013Z,102466.05
2019-02-16T14:27:47.349Z,102455.85
2019-02-16T14:30:17.679Z,102464.17
2019-02-16T14:32:47.991Z,102469.41
2019-02-16T14:35:18.235Z,102460.13
2019-02-16T14:37:57.383Z,102459.66
2019-02-16T14:40:31.104Z,102459.65
2019-02-16T14:43:03.140Z,102469.31
2019-02-16T14:45:37.338Z,102471.91
2019-02-16T14:48:07.840Z,102468.36
2019-02-16T14:50:38.217Z,102470.53
2019-02-16T14:53:09.023Z,102468.75
2019-02-16T14:55:39.299Z,102473.15
2019-02-16T14:58:09.668Z,102473.98
2019-02-16T15:00:39.914Z,102470.85
2019-02-16T15:03:10.320Z,102471.69
2019-02-16T15:05:40.609Z,102469.91
2019-02-16T15:08:10.876Z,102476.93
2019-02-16T15:10:41.125Z,102478.22
2019-02-16T15:13:14.546Z,102479.47
2019-02-16T15:15:44.840Z,102482.11
2019-02-16T15:18:15.132Z,102472.33
2019-02-16T15:20:45.770Z,102480.14
2019-02-16T15:23:16.129Z,102478.28
2019-02-16T15:25:46.434Z,102485.64
2019-02-16T15:28:16.583Z,102485.11
2019-02-16T15:30:46.874Z,102489.42
2019-02-16T15:33:17.093Z,102486.69
2019-02-16T15:35:47.314Z,102489.20
2019-02-16T15:38:17.525Z,102494.80
2019-02-16T15:40:48.146Z,102481.95
2019-02-16T15:43:18.690Z,102479.16
2019-02-16T15:45:49.205Z,102480.81
2019-02-16T15:48:20.244Z,102479.39
2019-02-16T15:50:50.890Z,102482.84
2019-02-16T15:53:22.441Z,102483.27
2019-02-16T15:55:53.177Z,102472.22
2019-02-16T15:58:23.874Z,102486.75
2019-02-16T16:00:54.579Z,102490.23
2019-02-16T16:03:25.447Z,102486.68
2019-02-16T16:05:56.020Z,102482.19
2019-02-16T16:08:38.622Z,102479.55
2019-02-16T16:11:17.314Z,102470.70
2019-02-16T16:13:59.908Z,102476.36
2019-02-16T16:16:55.737Z,102474.46
2019-02-16T16:19:48.078Z,102484.12
2019-02-16T16:22:52.694Z,102482.33
2019-02-16T16:25:37.185Z,102487.11
2019-02-16T16:28:21.194Z,102494.94
2019-02-16T16:31:09.262Z,102488.28
2019-02-16T16:33:57.002Z,102495.30
2019-02-16T16:36:49.751Z,102485.92
2019-02-16T16:39:31.582Z,102488.52
2019-02-16T16:42:19.763Z,102496.81
2019-02-16T16:45:08.021Z,102493.66
2019-02-16T16:47:55.704Z,102499.39
2019-02-16T16:50:55.874Z,102498.88
2019-02-16T16:53:36.152Z,102498.77
2019-02-16T16:56:28.700Z,102496.05
2019-02-16T16:59:16.637Z,102500.47
2019-02-16T17:02:05.989Z,102501.75
2019-02-16T17:04:53.818Z,102495.56
2019-02-16T17:07:45.886Z,102496.71
2019-02-16T17:10:23.129Z,102492.55
2019-02-16T17:13:02.018Z,102495.83
2019-02-16T17:15:39.289Z,102498.75
2019-02-16T17:18:24.588Z,102505.97
2019-02-16T17:21:27.195Z,102515.42
2019-02-16T17:24:05.238Z,102514.34
2019-02-16T17:26:50.735Z,102518.58
2019-02-16T17:29:41.748Z,102517.59
2019-02-16T17:32:26.625Z,102522.32
2019-02-16T17:35:07.535Z,102520.19
2019-02-16T17:37:44.776Z,102523.98
2019-02-16T17:40:37.982Z,102527.88
2019-02-16T17:43:33.418Z,102528.77
2019-02-16T17:46:23.003Z,102534.02
2019-02-16T17:49:02.730Z,102531.81
2019-02-16T17:52:01.975Z,102531.81
2019-02-16T17:55:02.632Z,102528.70
2019-02-16T17:57:36.898Z,102528.65
2019-02-16T18:00:27.258Z,102531.23
2019-02-16T18:03:10.052Z,102536.92
2019-02-16T18:06:11.345Z,102536.00
2019-02-16T18:08:57.129Z,102536.00
2019-02-16T18:11:35.797Z,102530.70
2019-02-16T18:14:41.307Z,102536.39
2019-02-16T18:17:37.187Z,102537.70
2019-02-16T18:20:44.812Z,102531.07
2019-02-16T18:23:29.379Z,102531.07
2019-02-16T18:26:27.715Z,102533.61
2019-02-16T18:29:19.847Z,102541.06
2019-02-16T18:32:15.003Z,102541.49
2019-02-16T18:35:06.920Z,102542.37
2019-02-16T18:38:02.076Z,102539.34
2019-02-16T18:40:56.087Z,102539.74
2019-02-16T18:43:45.927Z,102530.98
2019-02-16T18:46:26.684Z,102528.35
2019-02-16T18:49:28.488Z,102529.66
2019-02-16T18:52:21.715Z,102526.20
2019-02-16T18:55:10.195Z,102532.30
2019-02-16T18:57:40.304Z,102534.92
2019-02-16T19:00:23.850Z,102534.09
2019-02-16T19:03:15.976Z,102536.33
2019-02-16T19:05:57.391Z,102526.22
2019-02-16T19:08:48.137Z,102526.65
2019-02-16T19:11:37.837Z,102529.28
2019-02-16T19:14:31.471Z,102524.89
2019-02-16T19:17:10.013Z,102534.53
2019-02-16T19:22:56.371Z,102523.39
2019-02-16T19:25:31.690Z,102521.48
2019-02-16T19:28:08.625Z,102520.08
2019-02-16T19:30:53.561Z,102520.08
2019-02-16T19:33:46.574Z,102522.27
2019-02-16T19:36:42.689Z,102518.72
2019-02-16T19:39:32.962Z,102520.47
2019-02-16T19:42:13.045Z,102519.05
2019-02-16T19:45:14.563Z,102524.35
2019-02-16T19:48:06.019Z,102522.22
2019-02-16T19:50:45.803Z,102522.17
2019-02-16T19:53:33.999Z,102515.98
2019-02-16T19:56:22.497Z,102514.28
2019-02-16T19:59:23.704Z,102515.21
2019-02-16T20:02:13.523Z,102514.77
2019-02-16T20:04:58.138Z,102510.39
2019-02-16T20:07:41.133Z,102515.21
2019-02-16T20:10:27.725Z,102524.89
2019-02-16T20:13:32.719Z,102520.03
2019-02-16T20:16:09.181Z,102521.78
2019-02-16T20:19:16.637Z,102528.78
2019-02-16T20:22:21.283Z,102526.20
2019-02-16T20:25:08.415Z,102525.28
2019-02-16T20:28:00.740Z,102531.37
2019-02-16T20:30:50.205Z,102530.92
2019-02-16T20:33:45.734Z,102524.35
2019-02-16T20:36:33.462Z,102532.19
2019-02-16T20:39:25.867Z,102531.27
2019-02-16T20:42:13.941Z,102529.45
2019-02-16T20:44:49.940Z,102528.09
2019-02-16T20:47:38.024Z,102523.70
2019-02-16T20:50:21.610Z,102529.01
2019-02-16T20:53:09.089Z,102530.32
2019-02-16T20:55:48.215Z,102535.58
2019-02-16T20:58:37.557Z,102537.72
2019-02-16T21:01:26.944Z,102527.22
2019-02-16T21:04:17.144Z,102525.89
2019-02-16T21:07:09.332Z,102524.09
2019-02-16T21:09:58.951Z,102521.84
2019-02-16T21:12:57.635Z,102524.36
2019-02-16T21:15:34.551Z,102518.52
2019-02-16T21:18:22.390Z,102520.98
2019-02-16T21:21:12.144Z,102518.25
2019-02-16T21:23:58.365Z,102519.78
2019-02-16T21:26:36.912Z,102525.25
2019-02-16T21:29:28.522Z,102522.83
2019-02-16T21:34:45.823Z,102523.81
2019-02-16T21:37:41.299Z,102522.52
2019-02-16T21:40:26.646Z,102517.33
2019-02-16T21:43:04.810Z,102521.64
2019-02-16T21:46:07.226Z,102517.38
2019-02-16T21:48:47.118Z,102515.70
2019-02-16T21:54:38.646Z,102524.52
2019-02-16T21:57:25.208Z,102516.23
2019-02-16T22:00:14.787Z,102525.06
2019-02-16T22:03:07.324Z,102523.86
2019-02-16T22:06:02.916Z,102521.47
2019-02-16T22:08:52.207Z,102521.69
2019-02-16T22:11:39.702Z,102518.84
2019-02-16T22:14:10.361Z,102526.42
2019-02-16T22:16:41.559Z,102527.91
2019-02-16T22:19:12.189Z,102524.72
2019-02-16T22:21:42.822Z,102519.33
2019-02-16T22:24:13.394Z,102523.53
2019-02-16T22:26:44.024Z,102526.45
2019-02-16T22:29:17.114Z,102528.03
2019-02-16T22:31:47.913Z,102525.68
2019-02-16T22:34:21.615Z,102526.77
2019-02-16T22:36:51.994Z,102520.44
2019-02-16T22:39:22.509Z,102518.91
2019-02-16T22:41:53.006Z,102514.76
2019-02-16T22:44:23.405Z,102514.14
2019-02-16T22:46:53.760Z,102516.59
2019-02-16T22:49:24.116Z,102508.09
2019-02-16T22:51:55.427Z,102513.58
2019-02-16T22:54:25.770Z,102510.34
2019-02-16T22:56:56.286Z,102507.76
2019-02-16T22:59:26.826Z,102511.91
2019-02-16T23:01:57.333Z,102509.91
2019-02-16T23:04:27.778Z,102504.47
2019-02-16T23:07:00.976Z,102502.44
2019-02-16T23:09:31.545Z,102496.94
2019-02-16T23:12:01.857Z,102493.20
2019-02-16T23:14:32.395Z,102507.11
2019-02-16T23:17:04.610Z,102505.20
2019-02-16T23:19:34.927Z,102513.28
2019-02-16T23:22:05.354Z,102508.13
2019-02-16T23:24:39.047Z,102501.84
2019-02-16T23:27:13.628Z,102496.30
2019-02-16T23:29:44.121Z,102496.12
2019-02-16T23:32:17.506Z,102491.95
2019-02-16T23:34:49.908Z,102495.66
2019-02-16T23:37:20.144Z,102488.98
2019-02-16T23:39:50.414Z,102487.91
2019-02-16T23:42:20.929Z,102490.34
2019-02-16T23:44:51.179Z,102486.59
2019-02-16T23:47:21.408Z,102497.27
2019-02-16T23:49:51.637Z,102494.39
2019-02-16T23:52:21.802Z,102501.14
2019-02-16T23:54:51.992Z,102501.37
2019-02-16T23:57:22.298Z,102501.11
2019-02-16T23:59:52.482Z,102502.30
